createdAt,value
2018-09-22T00:02:12.183Z,1.00
2018-09-22T00:04:43.361Z,1.20
2018-09-22T00:07:14.519Z,1.00
2018-09-22T00:09:45.592Z,1.00
2018-09-22T00:12:17.371Z,1.00
2018-09-22T00:14:48.510Z,1.00
2018-09-22T00:17:19.677Z,1.00
2018-09-22T00:19:51.324Z,1.00
2018-09-22T00:22:22.526Z,1.00
2018-09-22T00:24:53.649Z,1.40
2018-09-22T00:27:24.766Z,2.20
2018-09-22T00:29:56.418Z,1.00
2018-09-22T00:32:27.656Z,1.00
2018-09-22T00:34:58.733Z,1.00
2018-09-22T00:37:29.856Z,3.00
2018-09-22T00:40:01.785Z,1.00
2018-09-22T00:42:33.594Z,1.00
2018-09-22T00:45:05.246Z,1.40
2018-09-22T00:47:36.350Z,1.40
2018-09-22T00:50:07.442Z,1.00
2018-09-22T00:52:39.069Z,1.80
2018-09-22T00:55:11.285Z,3.00
2018-09-22T00:57:42.961Z,1.00
2018-09-22T01:00:15.482Z,1.00
2018-09-22T01:02:47.633Z,1.40
2018-09-22T01:05:20.315Z,1.40
2018-09-22T01:07:52.155Z,1.60
2018-09-22T01:10:23.735Z,2.20
2018-09-22T01:12:55.733Z,1.00
2018-09-22T01:15:27.252Z,3.00
2018-09-22T01:17:58.882Z,1.00
2018-09-22T01:20:30.642Z,1.00
2018-09-22T01:23:02.059Z,2.40
2018-09-22T01:25:33.270Z,1.00
2018-09-22T01:28:04.555Z,1.80
2018-09-22T01:30:35.642Z,3.00
2018-09-22T01:33:06.804Z,1.00
2018-09-22T01:35:38.260Z,1.40
2018-09-22T01:38:09.469Z,1.40
2018-09-22T01:40:40.550Z,1.00
2018-09-22T01:43:12.612Z,2.60
2018-09-22T01:45:43.788Z,1.00
2018-09-22T01:48:15.030Z,1.00
2018-09-22T01:50:46.138Z,1.40
2018-09-22T01:53:17.266Z,1.00
2018-09-22T01:55:48.674Z,1.00
2018-09-22T01:58:19.863Z,3.00
2018-09-22T02:00:51.034Z,3.00
2018-09-22T02:03:22.242Z,1.80
2018-09-22T02:05:54.153Z,2.40
2018-09-22T02:08:25.553Z,1.00
2018-09-22T02:10:56.664Z,1.00
2018-09-22T02:13:27.867Z,2.60
2018-09-22T02:15:59.273Z,1.40
2018-09-22T02:18:30.381Z,3.00
2018-09-22T02:21:01.504Z,1.00
2018-09-22T02:23:32.965Z,1.00
2018-09-22T02:26:04.042Z,3.00
2018-09-22T02:28:36.135Z,1.00
2018-09-22T02:31:07.760Z,3.00
2018-09-22T02:33:38.951Z,3.00
2018-09-22T02:36:11.791Z,2.20
2018-09-22T02:38:42.958Z,1.00
2018-09-22T02:41:14.964Z,1.00
2018-09-22T02:43:47.144Z,2.60
2018-09-22T02:46:18.410Z,4.00
2018-09-22T02:48:49.564Z,3.60
2018-09-22T02:51:21.607Z,3.20
2018-09-22T02:53:53.509Z,1.80
2018-09-22T02:56:26.448Z,1.00
2018-09-22T02:58:57.675Z,3.00
2018-09-22T03:01:29.617Z,1.00
2018-09-22T03:04:00.809Z,2.60
2018-09-22T03:06:32.911Z,1.00
2018-09-22T03:09:06.163Z,3.00
2018-09-22T03:11:37.306Z,2.20
2018-09-22T03:14:09.659Z,2.60
2018-09-22T03:16:41.311Z,2.20
2018-09-22T03:19:12.474Z,1.00
2018-09-22T03:21:43.620Z,3.00
2018-09-22T03:24:15.005Z,3.00
2018-09-22T03:26:46.142Z,2.60
2018-09-22T03:29:17.664Z,1.40
2018-09-22T03:31:48.766Z,1.00
2018-09-22T03:34:21.691Z,3.00
2018-09-22T03:36:53.482Z,1.00
2018-09-22T03:39:25.002Z,3.60
2018-09-22T03:41:57.732Z,2.20
2018-09-22T03:44:29.670Z,3.00
2018-09-22T03:47:01.556Z,3.00
2018-09-22T03:49:33.313Z,4.00
2018-09-22T03:52:04.410Z,1.40
2018-09-22T03:54:35.523Z,2.60
2018-09-22T03:57:09.305Z,2.20
2018-09-22T03:59:40.431Z,1.00
2018-09-22T04:02:12.245Z,1.80
2018-09-22T04:04:43.315Z,3.00
2018-09-22T04:07:15.329Z,1.00
2018-09-22T04:09:46.446Z,1.80
2018-09-22T04:12:18.466Z,2.20
2018-09-22T04:14:49.585Z,2.60
2018-09-22T04:17:20.710Z,1.80
2018-09-22T04:19:53.818Z,2.60
2018-09-22T04:22:24.964Z,3.00
2018-09-22T04:24:56.057Z,3.00
2018-09-22T04:27:27.199Z,2.60
2018-09-22T04:29:58.280Z,1.40
2018-09-22T04:32:29.357Z,2.60
2018-09-22T04:35:00.778Z,3.00
2018-09-22T04:37:32.486Z,3.00
2018-09-22T04:40:04.114Z,3.00
2018-09-22T04:42:35.353Z,2.20
2018-09-22T04:45:07.470Z,3.00
2018-09-22T04:47:39.471Z,1.00
2018-09-22T04:50:10.608Z,3.20
2018-09-22T04:52:41.719Z,3.00
2018-09-22T04:55:12.843Z,1.40
2018-09-22T04:57:44.038Z,3.00
2018-09-22T05:00:16.018Z,1.40
2018-09-22T05:02:47.659Z,3.00
2018-09-22T05:05:18.869Z,3.20
2018-09-22T05:07:50.237Z,3.00
2018-09-22T05:10:21.675Z,1.80
2018-09-22T05:12:52.872Z,3.00
2018-09-22T05:15:25.772Z,1.00
2018-09-22T05:17:56.981Z,3.00
2018-09-22T05:20:28.818Z,3.00
2018-09-22T05:23:00.303Z,3.00
2018-09-22T05:25:31.435Z,3.00
2018-09-22T05:28:03.256Z,3.00
2018-09-22T05:30:34.371Z,3.60
2018-09-22T05:33:06.595Z,1.40
2018-09-22T05:35:38.154Z,4.00
2018-09-22T05:38:09.722Z,3.00
2018-09-22T05:40:42.121Z,3.00
2018-09-22T05:43:13.663Z,3.00
2018-09-22T05:45:45.724Z,3.00
2018-09-22T05:48:17.332Z,3.00
2018-09-22T05:50:50.177Z,4.00
2018-09-22T05:53:23.866Z,1.80
2018-09-22T05:55:54.912Z,1.20
2018-09-22T05:58:27.994Z,3.00
2018-09-22T06:00:59.150Z,4.00
2018-09-22T06:03:30.558Z,2.40
2018-09-22T06:06:02.198Z,4.00
2018-09-22T06:08:34.049Z,2.40
2018-09-22T06:11:05.182Z,2.40
2018-09-22T06:13:36.250Z,4.00
2018-09-22T06:16:07.666Z,3.00
2018-09-22T06:18:39.696Z,1.80
2018-09-22T06:21:10.908Z,2.40
2018-09-22T06:23:42.070Z,3.20
2018-09-22T06:26:13.206Z,2.40
2018-09-22T06:28:44.400Z,3.00
2018-09-22T06:31:16.032Z,2.40
2018-09-22T06:33:47.239Z,3.20
2018-09-22T06:36:18.356Z,2.40
2018-09-22T06:38:49.992Z,3.60
2018-09-22T06:41:24.452Z,3.80
2018-09-22T06:43:56.663Z,3.40
2018-09-22T06:46:28.026Z,5.40
2018-09-22T06:48:59.417Z,2.40
2018-09-22T06:51:31.292Z,3.40
2018-09-22T06:54:02.549Z,2.00
2018-09-22T06:59:11.137Z,2.00
2018-09-22T07:01:44.723Z,4.00
2018-09-22T07:04:15.871Z,2.00
2018-09-22T07:06:46.957Z,2.80
2018-09-22T07:09:18.503Z,2.00
2018-09-22T07:11:50.359Z,3.20
2018-09-22T07:14:21.496Z,4.00
2018-09-22T07:16:52.623Z,3.20
2018-09-22T07:19:24.620Z,2.40
2018-09-22T07:22:02.214Z,4.00
2018-09-22T07:24:33.396Z,3.60
2018-09-22T07:27:06.706Z,2.80
2018-09-22T07:29:38.717Z,2.00
2018-09-22T07:32:10.609Z,2.40
2018-09-22T07:34:48.116Z,5.00
2018-09-22T07:37:21.102Z,5.00
2018-09-22T07:39:52.515Z,4.60
2018-09-22T07:42:23.707Z,3.20
2018-09-22T07:44:55.670Z,4.00
2018-09-22T07:47:26.825Z,2.00
2018-09-22T07:52:35.052Z,4.00
2018-09-22T07:55:08.591Z,2.00
2018-09-22T07:57:40.194Z,1.80
2018-09-22T08:00:13.854Z,4.00
2018-09-22T08:02:45.698Z,3.20
2018-09-22T08:05:21.821Z,2.00
2018-09-22T08:07:56.486Z,2.40
2018-09-22T08:10:27.672Z,2.00
2018-09-22T08:12:59.323Z,4.40
2018-09-22T08:15:31.257Z,4.00
2018-09-22T08:18:03.279Z,2.00
2018-09-22T08:20:34.978Z,2.00
2018-09-22T08:23:07.720Z,4.00
2018-09-22T08:25:39.111Z,1.80
2018-09-22T08:28:10.205Z,4.20
2018-09-22T08:30:41.958Z,4.40
2018-09-22T08:33:14.522Z,1.80
2018-09-22T08:35:47.721Z,2.00
2018-09-22T08:38:19.910Z,3.60
2018-09-22T08:40:51.220Z,3.20
2018-09-22T08:43:23.060Z,3.60
2018-09-22T08:45:55.233Z,3.60
2018-09-22T08:48:26.947Z,2.00
2018-09-22T08:51:00.575Z,3.60
2018-09-22T08:53:32.037Z,2.00
2018-09-22T08:56:03.235Z,2.40
2018-09-22T08:58:34.666Z,3.60
2018-09-22T09:01:06.495Z,4.00
2018-09-22T09:03:39.217Z,2.80
2018-09-22T09:06:10.481Z,4.00
2018-09-22T09:08:41.723Z,2.00
2018-09-22T09:11:15.801Z,2.40
2018-09-22T09:13:47.189Z,4.00
2018-09-22T09:16:18.533Z,4.00
2018-09-22T09:18:50.665Z,4.00
2018-09-22T09:21:22.649Z,4.00
2018-09-22T09:23:55.793Z,2.00
2018-09-22T09:26:26.961Z,4.00
2018-09-22T09:28:58.014Z,2.00
2018-09-22T09:31:29.157Z,4.00
2018-09-22T09:34:01.173Z,2.00
2018-09-22T09:36:32.909Z,2.40
2018-09-22T09:39:06.539Z,4.00
2018-09-22T09:41:37.690Z,2.00
2018-09-22T09:44:09.757Z,4.00
2018-09-22T09:46:42.308Z,2.00
2018-09-22T09:49:14.414Z,3.20
2018-09-22T09:51:46.322Z,2.00
2018-09-22T09:54:17.829Z,4.00
2018-09-22T09:56:51.983Z,4.40
2018-09-22T09:59:23.124Z,2.00
2018-09-22T10:01:57.305Z,4.60
2018-09-22T10:04:31.114Z,2.80
2018-09-22T10:07:02.519Z,4.00
2018-09-22T10:09:34.179Z,2.00
2018-09-22T10:12:05.790Z,4.20
2018-09-22T10:14:37.671Z,3.80
2018-09-22T10:17:11.784Z,2.80
2018-09-22T10:19:45.629Z,4.60
2018-09-22T10:22:21.348Z,2.00
2018-09-22T10:24:52.501Z,2.20
2018-09-22T10:27:23.557Z,2.00
2018-09-22T10:29:56.475Z,2.60
2018-09-22T10:32:33.701Z,2.00
2018-09-22T10:35:06.330Z,3.00
2018-09-22T10:37:39.584Z,3.00
2018-09-22T10:40:12.837Z,2.60
2018-09-22T10:42:44.050Z,3.00
2018-09-22T10:45:16.746Z,3.00
2018-09-22T10:47:48.681Z,3.00
2018-09-22T10:50:21.135Z,2.00
2018-09-22T10:52:52.365Z,3.00
2018-09-22T10:55:23.787Z,2.80
2018-09-22T10:57:55.895Z,4.40
2018-09-22T11:00:29.800Z,2.60
2018-09-22T11:05:40.511Z,2.60
2018-09-22T11:08:11.674Z,2.40
2018-09-22T11:10:43.999Z,3.00
2018-09-22T11:13:15.183Z,4.20
2018-09-22T11:15:47.316Z,2.20
2018-09-22T11:18:19.851Z,2.00
2018-09-22T11:20:51.018Z,3.40
2018-09-22T11:23:23.371Z,3.00
2018-09-22T11:25:54.579Z,3.00
2018-09-22T11:28:26.774Z,3.00
2018-09-22T11:30:58.562Z,3.00
2018-09-22T11:33:29.801Z,3.00
2018-09-22T11:36:01.203Z,2.20
2018-09-22T11:38:32.702Z,2.00
2018-09-22T11:41:05.656Z,2.00
2018-09-22T11:43:38.410Z,2.60
2018-09-22T11:46:10.922Z,3.00
2018-09-22T11:48:42.290Z,4.00
2018-09-22T11:51:13.417Z,2.80
2018-09-22T11:53:45.824Z,3.00
2018-09-22T11:56:18.349Z,2.00
2018-09-22T11:58:50.393Z,2.80
2018-09-22T12:01:24.106Z,2.00
2018-09-22T12:03:55.825Z,2.40
2018-09-22T12:06:27.541Z,3.00
2018-09-22T12:09:00.921Z,2.00
2018-09-22T12:11:33.273Z,3.00
2018-09-22T12:14:06.607Z,2.00
2018-09-22T12:16:38.148Z,3.00
2018-09-22T12:19:11.736Z,2.00
2018-09-22T12:21:43.648Z,2.00
2018-09-22T12:24:16.522Z,2.20
2018-09-22T12:26:49.279Z,2.00
2018-09-22T12:29:21.561Z,2.00
2018-09-22T12:31:52.703Z,2.00
2018-09-22T12:34:27.162Z,3.00
2018-09-22T12:36:58.280Z,2.80
2018-09-22T12:39:30.403Z,3.00
2018-09-22T12:42:01.552Z,3.00
2018-09-22T12:44:33.599Z,2.80
2018-09-22T12:47:05.034Z,2.40
2018-09-22T12:49:36.190Z,2.00
2018-09-22T12:52:08.210Z,3.00
2018-09-22T12:54:40.316Z,2.00
2018-09-22T12:57:11.420Z,2.00
2018-09-22T12:59:43.971Z,2.80
2018-09-22T13:02:15.719Z,2.00
2018-09-22T13:04:46.999Z,3.40
2018-09-22T13:07:20.419Z,3.20
2018-09-22T13:09:53.925Z,2.00
2018-09-22T13:12:25.078Z,2.00
2018-09-22T13:14:58.663Z,2.00
2018-09-22T13:17:31.332Z,2.00
2018-09-22T13:20:03.538Z,2.00
2018-09-22T13:22:36.147Z,2.80
2018-09-22T13:25:08.534Z,3.00
2018-09-22T13:27:39.654Z,2.00
2018-09-22T13:30:13.295Z,3.00
2018-09-22T13:32:45.331Z,2.00
2018-09-22T13:35:18.034Z,2.80
2018-09-22T13:37:49.745Z,2.00
2018-09-22T13:40:21.523Z,2.40
2018-09-22T13:42:53.971Z,3.00
2018-09-22T13:45:27.243Z,2.00
2018-09-22T13:50:56.709Z,2.00
2018-09-22T13:53:32.507Z,2.60
2018-09-22T13:56:07.768Z,2.40
2018-09-22T13:58:43.612Z,2.00
2018-09-22T14:01:28.026Z,4.60
2018-09-22T14:04:05.267Z,2.00
2018-09-22T14:06:37.608Z,2.00
2018-09-22T14:09:20.854Z,3.40
2018-09-22T14:11:54.109Z,2.00
2018-09-22T14:14:25.555Z,2.00
2018-09-22T14:16:59.079Z,3.40
2018-09-22T14:19:36.457Z,5.00
2018-09-22T14:22:08.249Z,2.40
2018-09-22T14:24:43.429Z,3.00
2018-09-22T14:27:14.634Z,2.00
2018-09-22T14:29:48.567Z,2.60
2018-09-22T14:32:21.371Z,3.00
2018-09-22T14:34:53.614Z,2.00
2018-09-22T14:37:28.306Z,3.20
2018-09-22T14:40:00.915Z,2.40
2018-09-22T14:42:33.557Z,1.20
2018-09-22T14:45:06.471Z,2.00
2018-09-22T14:47:37.614Z,2.80
2018-09-22T14:50:09.365Z,3.40
2018-09-22T14:52:40.490Z,2.00
2018-09-22T14:55:12.396Z,2.00
2018-09-22T14:57:43.574Z,2.00
2018-09-22T15:00:17.072Z,2.20
2018-09-22T15:02:48.231Z,2.00
2018-09-22T15:05:20.229Z,2.00
2018-09-22T15:07:54.063Z,2.60
2018-09-22T15:10:25.205Z,2.00
2018-09-22T15:12:59.220Z,3.00
2018-09-22T15:15:31.086Z,2.00
2018-09-22T15:18:02.511Z,1.60
2018-09-22T15:20:33.672Z,2.00
2018-09-22T15:23:05.409Z,2.00
2018-09-22T15:25:38.438Z,2.00
2018-09-22T15:28:11.563Z,2.00
2018-09-22T15:30:43.060Z,2.00
2018-09-22T15:33:15.011Z,2.00
2018-09-22T15:35:47.071Z,2.00
2018-09-22T15:38:20.547Z,3.20
2018-09-22T15:40:51.609Z,1.60
2018-09-22T15:43:23.897Z,1.40
2018-09-22T15:45:56.241Z,3.60
2018-09-22T15:48:28.361Z,2.00
2018-09-22T15:50:59.586Z,2.00
2018-09-22T15:53:31.038Z,2.00
2018-09-22T15:56:03.090Z,2.00
2018-09-22T15:58:35.802Z,2.00
2018-09-22T16:01:09.292Z,2.80
2018-09-22T16:03:41.891Z,2.00
2018-09-22T16:06:13.085Z,2.00
2018-09-22T16:08:44.908Z,1.00
2018-09-22T16:11:19.723Z,1.00
2018-09-22T16:13:50.905Z,1.00
2018-09-22T16:16:24.138Z,1.00
2018-09-22T16:18:56.543Z,1.20
2018-09-22T16:21:28.442Z,1.00
2018-09-22T16:23:59.674Z,1.00
2018-09-22T16:26:31.120Z,2.00
2018-09-22T16:29:03.124Z,1.40
2018-09-22T16:31:36.014Z,1.60
2018-09-22T16:34:08.106Z,1.60
2018-09-22T16:36:42.758Z,1.00
2018-09-22T16:39:15.287Z,2.00
2018-09-22T16:41:46.497Z,1.00
2018-09-22T16:44:17.595Z,1.20
2018-09-22T16:46:49.314Z,1.00
2018-09-22T16:49:22.620Z,1.00
2018-09-22T16:51:53.996Z,1.40
2018-09-22T16:54:25.083Z,1.60
2018-09-22T16:56:56.459Z,1.00
2018-09-22T16:59:31.507Z,2.00
2018-09-22T17:02:03.469Z,1.80
2018-09-22T17:04:34.886Z,1.80
2018-09-22T17:07:09.206Z,2.00
2018-09-22T17:09:42.164Z,1.00
2018-09-22T17:12:15.567Z,2.20
2018-09-22T17:14:47.975Z,2.00
2018-09-22T17:17:21.223Z,1.20
2018-09-22T17:19:54.325Z,1.40
2018-09-22T17:22:27.527Z,2.00
2018-09-22T17:24:58.635Z,2.00
2018-09-22T17:27:30.300Z,2.00
2018-09-22T17:30:02.311Z,2.40
2018-09-22T17:32:34.378Z,2.00
2018-09-22T17:35:12.213Z,2.00
2018-09-22T17:37:43.389Z,2.00
2018-09-22T17:40:15.512Z,1.40
2018-09-22T17:42:47.519Z,3.80
2018-09-22T17:45:23.492Z,2.00
2018-09-22T17:47:56.777Z,2.00
2018-09-22T17:50:29.518Z,4.20
2018-09-22T17:53:02.206Z,2.40
2018-09-22T17:55:33.379Z,2.60
2018-09-22T17:58:06.467Z,2.00
2018-09-22T18:00:39.367Z,2.40
2018-09-22T18:03:11.956Z,2.40
2018-09-22T18:05:44.558Z,2.40
2018-09-22T18:08:17.151Z,1.00
2018-09-22T18:10:48.460Z,2.40
2018-09-22T18:13:19.710Z,1.60
2018-09-22T18:15:50.883Z,5.40
2018-09-22T18:18:23.195Z,3.80
2018-09-22T18:21:04.576Z,4.00
2018-09-22T18:23:35.815Z,4.00
2018-09-22T18:26:12.206Z,5.40
2018-09-22T18:28:43.429Z,4.00
2018-09-22T18:31:16.240Z,2.40
2018-09-22T18:33:49.194Z,4.00
2018-09-22T18:36:22.038Z,4.00
2018-09-22T18:38:53.380Z,3.80
2018-09-22T18:41:25.474Z,4.00
2018-09-22T18:43:58.516Z,4.00
2018-09-22T18:46:33.019Z,4.00
2018-09-22T18:49:05.287Z,4.60
2018-09-22T18:51:36.788Z,4.00
2018-09-22T18:54:09.779Z,2.00
2018-09-22T18:56:40.987Z,4.00
2018-09-22T18:59:12.459Z,2.40
2018-09-22T19:01:44.398Z,4.00
2018-09-22T19:04:15.650Z,4.00
2018-09-22T19:06:47.578Z,4.00
2018-09-22T19:09:20.794Z,3.60
2018-09-22T19:11:56.613Z,2.80
2018-09-22T19:15:04.287Z,4.00
2018-09-22T19:17:42.619Z,3.20
2018-09-22T19:20:23.419Z,2.40
2018-09-22T19:22:58.622Z,4.00
2018-09-22T19:25:34.488Z,4.00
2018-09-22T19:28:12.017Z,4.20
2018-09-22T19:30:50.308Z,4.40
2018-09-22T19:33:57.520Z,4.00
2018-09-22T19:36:35.340Z,3.20
2018-09-22T19:39:17.746Z,2.80
2018-09-22T19:41:56.562Z,4.00
2018-09-22T19:44:37.420Z,4.40
2018-09-22T19:48:15.839Z,2.80
2018-09-22T19:50:58.432Z,2.00
2018-09-22T19:53:33.450Z,4.80
2018-09-22T19:56:11.467Z,4.00
2018-09-22T19:58:44.607Z,5.00
2018-09-22T20:01:19.437Z,5.00
2018-09-22T20:03:53.109Z,4.00
2018-09-22T20:06:26.447Z,4.00
2018-09-22T20:08:58.590Z,3.60
2018-09-22T20:11:30.397Z,3.60
2018-09-22T20:14:05.499Z,4.20
2018-09-22T20:16:41.189Z,5.00
2018-09-22T20:19:14.362Z,4.60
2018-09-22T20:21:46.455Z,4.00
2018-09-22T20:24:19.100Z,5.00
2018-09-22T20:26:51.561Z,4.40
2018-09-22T20:29:25.580Z,4.00
2018-09-22T20:32:04.342Z,4.20
2018-09-22T20:34:46.039Z,4.00
2018-09-22T20:37:21.807Z,2.40
2018-09-22T20:39:56.526Z,4.20
2018-09-22T20:42:29.668Z,4.00
2018-09-22T20:45:00.865Z,2.80
2018-09-22T20:47:35.250Z,2.00
2018-09-22T20:50:09.331Z,4.00
2018-09-22T20:52:42.026Z,4.00
2018-09-22T20:55:15.778Z,4.00
2018-09-22T20:57:50.528Z,2.40
2018-09-22T21:00:24.174Z,4.00
2018-09-22T21:02:55.296Z,4.00
2018-09-22T21:05:29.658Z,4.40
2018-09-22T21:08:03.374Z,5.00
2018-09-22T21:10:35.409Z,4.00
2018-09-22T21:13:06.594Z,3.20
2018-09-22T21:15:37.825Z,4.20
2018-09-22T21:18:11.718Z,4.00
2018-09-22T21:20:44.015Z,3.60
2018-09-22T21:23:15.524Z,4.00
2018-09-22T21:25:46.769Z,4.00
2018-09-22T21:28:18.742Z,5.00
2018-09-22T21:30:50.681Z,4.00
2018-09-22T21:33:24.151Z,4.00
2018-09-22T21:35:56.696Z,4.00
2018-09-22T21:38:30.339Z,4.40
2018-09-22T21:41:02.849Z,5.00
2018-09-22T21:43:34.876Z,4.00
2018-09-22T21:46:07.053Z,5.00
2018-09-22T21:48:39.467Z,3.60
2018-09-22T21:51:10.871Z,4.20
2018-09-22T21:53:43.227Z,4.80
2018-09-22T21:56:15.875Z,5.00
2018-09-22T21:58:47.142Z,4.00
2018-09-22T22:01:23.450Z,4.20
2018-09-22T22:03:54.848Z,5.00
2018-09-22T22:06:33.936Z,5.00
2018-09-22T22:09:07.980Z,7.00
2018-09-22T22:11:40.486Z,4.80
2018-09-22T22:14:13.866Z,5.00
2018-09-22T22:16:44.995Z,4.00
2018-09-22T22:19:16.224Z,5.00
2018-09-22T22:21:48.486Z,5.40
2018-09-22T22:24:19.656Z,4.20
2018-09-22T22:26:53.211Z,5.00
2018-09-22T22:29:24.371Z,6.20
2018-09-22T22:31:54.740Z,5.67
2018-09-22T22:34:26.967Z,7.00
2018-09-22T22:36:59.028Z,5.00
2018-09-22T22:39:30.850Z,4.20
2018-09-22T22:42:03.636Z,6.60
2018-09-22T22:44:34.796Z,4.80
2018-09-22T22:47:05.881Z,7.40
2018-09-22T22:49:37.401Z,5.00
2018-09-22T22:52:13.469Z,6.20
2018-09-22T22:54:46.197Z,4.60
2018-09-22T22:57:18.248Z,5.00
2018-09-22T22:59:50.787Z,5.80
2018-09-22T23:02:22.329Z,6.20
2018-09-22T23:04:54.447Z,7.00
2018-09-22T23:07:28.761Z,7.80
2018-09-22T23:10:00.525Z,5.00
2018-09-22T23:12:32.578Z,7.00
2018-09-22T23:15:07.927Z,5.40
2018-09-22T23:17:39.082Z,6.20
2018-09-22T23:20:10.548Z,5.00
2018-09-22T23:22:45.361Z,6.20
2018-09-22T23:25:17.167Z,5.80
2018-09-22T23:27:50.403Z,4.80
2018-09-22T23:30:24.318Z,5.00
2018-09-22T23:32:55.778Z,5.00
2018-09-22T23:35:31.587Z,6.60
2018-09-22T23:38:02.707Z,5.00
2018-09-22T23:40:36.417Z,4.20
2018-09-22T23:43:08.702Z,4.80
2018-09-22T23:45:39.930Z,7.00
2018-09-22T23:48:11.455Z,4.00
2018-09-22T23:50:41.870Z,4.00
2018-09-22T23:53:14.012Z,5.00
2018-09-22T23:55:47.322Z,4.00
2018-09-22T23:58:18.511Z,5.00
